createdAt,value
2018-12-27T00:01:29.823Z,1.00
2018-12-27T00:03:58.423Z,1.00
2018-12-27T00:06:27.007Z,0.90
2018-12-27T00:08:55.603Z,1.00
2018-12-27T00:11:24.187Z,1.00
2018-12-27T00:13:52.788Z,0.90
2018-12-27T00:16:21.376Z,1.00
2018-12-27T00:18:49.973Z,1.00
2018-12-27T00:21:18.551Z,1.10
2018-12-27T00:23:47.146Z,1.00
2018-12-27T00:26:16.607Z,1.00
2018-12-27T00:28:45.203Z,1.00
2018-12-27T00:31:13.947Z,1.00
2018-12-27T00:33:43.636Z,1.10
2018-12-27T00:36:12.374Z,1.00
2018-12-27T00:38:41.134Z,1.00
2018-12-27T00:41:09.879Z,1.10
2018-12-27T00:43:38.618Z,1.10
2018-12-27T00:46:07.379Z,1.10
2018-12-27T00:48:36.124Z,1.10
2018-12-27T00:51:04.883Z,1.10
2018-12-27T00:53:40.375Z,1.10
2018-12-27T00:56:09.127Z,1.10
2018-12-27T00:58:37.871Z,1.10
2018-12-27T01:01:06.622Z,1.10
2018-12-27T01:03:35.363Z,1.10
2018-12-27T01:06:04.115Z,1.10
2018-12-27T01:08:32.855Z,1.10
2018-12-27T01:11:01.606Z,1.10
2018-12-27T01:13:30.351Z,1.10
2018-12-27T01:15:59.099Z,1.20
2018-12-27T01:18:27.834Z,1.20
2018-12-27T01:20:56.591Z,1.20
2018-12-27T01:23:26.239Z,1.20
2018-12-27T01:25:54.994Z,1.20
2018-12-27T01:28:23.739Z,1.10
2018-12-27T01:30:52.498Z,1.10
2018-12-27T01:33:21.231Z,1.20
2018-12-27T01:35:49.983Z,1.20
2018-12-27T01:38:18.722Z,1.20
2018-12-27T01:40:47.479Z,1.20
2018-12-27T01:43:16.228Z,1.20
2018-12-27T01:45:44.988Z,1.20
2018-12-27T01:48:13.727Z,1.20
2018-12-27T01:50:42.481Z,1.30
2018-12-27T01:53:12.207Z,1.20
2018-12-27T01:55:40.975Z,1.20
2018-12-27T01:58:09.715Z,1.20
2018-12-27T02:00:38.454Z,1.20
2018-12-27T02:03:07.206Z,1.20
2018-12-27T02:05:35.943Z,1.30
2018-12-27T02:08:04.719Z,1.30
2018-12-27T02:10:33.458Z,1.20
2018-12-27T02:13:02.219Z,1.20
2018-12-27T02:15:30.962Z,1.20
2018-12-27T02:17:59.712Z,1.20
2018-12-27T02:20:28.455Z,1.20
2018-12-27T02:22:57.329Z,1.30
2018-12-27T02:25:26.039Z,1.30
2018-12-27T02:27:54.792Z,1.30
2018-12-27T02:30:23.533Z,1.30
2018-12-27T02:32:52.282Z,1.30
2018-12-27T02:35:21.026Z,1.30
2018-12-27T02:37:49.775Z,1.30
2018-12-27T02:40:18.524Z,1.30
2018-12-27T02:42:47.276Z,1.30
2018-12-27T02:45:16.014Z,1.20
2018-12-27T02:47:44.772Z,1.30
2018-12-27T02:50:13.520Z,1.30
2018-12-27T02:52:42.294Z,1.30
2018-12-27T02:55:11.027Z,1.30
2018-12-27T02:57:39.769Z,1.30
2018-12-27T03:00:08.520Z,1.30
2018-12-27T03:02:37.259Z,1.30
2018-12-27T03:05:06.011Z,1.30
2018-12-27T03:07:34.760Z,1.30
2018-12-27T03:10:03.507Z,1.30
2018-12-27T03:12:32.247Z,1.30
2018-12-27T03:15:01.142Z,1.30
2018-12-27T03:17:30.110Z,1.30
2018-12-27T03:19:58.864Z,1.30
2018-12-27T03:22:27.688Z,1.30
2018-12-27T03:24:56.443Z,1.30
2018-12-27T03:27:25.187Z,1.30
2018-12-27T03:29:53.943Z,1.30
2018-12-27T03:32:22.685Z,1.30
2018-12-27T03:34:51.443Z,1.30
2018-12-27T03:37:20.183Z,1.30
2018-12-27T03:39:48.939Z,1.30
2018-12-27T03:42:17.684Z,1.30
2018-12-27T03:44:46.441Z,1.40
2018-12-27T03:47:15.200Z,1.40
2018-12-27T03:49:44.010Z,1.40
2018-12-27T03:52:12.752Z,1.40
2018-12-27T03:54:41.487Z,1.40
2018-12-27T03:57:10.248Z,1.40
2018-12-27T03:59:39.061Z,1.40
2018-12-27T04:02:07.811Z,1.40
2018-12-27T04:04:36.550Z,1.40
2018-12-27T04:07:05.303Z,1.40
2018-12-27T04:09:34.043Z,1.40
2018-12-27T04:12:02.799Z,1.40
2018-12-27T04:14:31.545Z,1.40
2018-12-27T04:17:00.131Z,1.50
2018-12-27T04:19:28.716Z,1.50
2018-12-27T04:21:58.216Z,1.50
2018-12-27T04:24:26.935Z,1.50
2018-12-27T04:26:55.530Z,1.50
2018-12-27T04:29:24.116Z,1.50
2018-12-27T04:31:54.518Z,1.50
2018-12-27T04:34:24.049Z,1.50
2018-12-27T04:36:53.580Z,1.50
2018-12-27T04:39:22.170Z,1.50
2018-12-27T04:41:51.296Z,1.50
2018-12-27T04:44:20.247Z,1.50
2018-12-27T04:46:48.838Z,1.50
2018-12-27T04:49:17.427Z,1.50
2018-12-27T04:51:46.031Z,1.50
2018-12-27T04:54:14.623Z,1.50
2018-12-27T04:56:43.211Z,1.50
2018-12-27T04:59:11.799Z,1.60
2018-12-27T05:01:40.395Z,1.60
2018-12-27T05:04:08.983Z,1.50
2018-12-27T05:06:37.592Z,1.50
2018-12-27T05:09:06.723Z,1.50
2018-12-27T05:11:35.313Z,1.50
2018-12-27T05:14:04.875Z,1.50
2018-12-27T05:16:33.462Z,1.50
2018-12-27T05:19:02.054Z,1.50
2018-12-27T05:21:30.639Z,1.50
2018-12-27T05:23:59.231Z,1.40
2018-12-27T05:26:27.812Z,1.40
2018-12-27T05:28:56.451Z,1.50
2018-12-27T05:31:25.032Z,1.50
2018-12-27T05:33:53.639Z,1.60
2018-12-27T05:36:22.226Z,1.50
2018-12-27T05:38:50.819Z,1.50
2018-12-27T05:41:19.398Z,1.50
2018-12-27T05:43:47.999Z,1.60
2018-12-27T05:46:16.583Z,1.60
2018-12-27T05:48:45.174Z,1.60
2018-12-27T05:51:13.759Z,1.50
2018-12-27T05:53:43.370Z,1.50
2018-12-27T05:56:11.955Z,1.50
2018-12-27T05:58:40.537Z,1.50
2018-12-27T06:01:09.137Z,1.50
2018-12-27T06:03:37.719Z,1.50
2018-12-27T06:06:06.320Z,1.50
2018-12-27T06:08:34.906Z,1.50
2018-12-27T06:11:03.507Z,1.50
2018-12-27T06:13:32.092Z,1.50
2018-12-27T06:16:00.695Z,1.50
2018-12-27T06:18:29.276Z,1.50
2018-12-27T06:20:57.932Z,1.50
2018-12-27T06:23:26.515Z,1.50
2018-12-27T06:25:55.111Z,1.50
2018-12-27T06:28:23.701Z,1.50
2018-12-27T06:30:52.294Z,1.60
2018-12-27T06:33:20.889Z,1.50
2018-12-27T06:35:49.476Z,1.50
2018-12-27T06:38:18.064Z,1.50
2018-12-27T06:40:46.672Z,1.50
2018-12-27T06:43:15.258Z,1.50
2018-12-27T06:45:43.840Z,1.50
2018-12-27T06:48:12.435Z,1.50
2018-12-27T06:50:41.023Z,1.50
2018-12-27T06:53:09.622Z,1.50
2018-12-27T06:55:38.207Z,1.50
2018-12-27T06:58:06.803Z,1.50
2018-12-27T07:00:35.389Z,1.50
2018-12-27T07:03:04.055Z,1.50
2018-12-27T07:05:32.636Z,1.50
2018-12-27T07:08:01.231Z,1.50
2018-12-27T07:10:29.815Z,1.50
2018-12-27T07:12:58.411Z,1.60
2018-12-27T07:15:26.995Z,1.50
2018-12-27T07:17:55.617Z,1.50
2018-12-27T07:20:24.204Z,1.50
2018-12-27T07:22:52.808Z,1.50
2018-12-27T07:25:21.390Z,1.50
2018-12-27T07:27:49.991Z,1.60
2018-12-27T07:30:18.603Z,1.60
2018-12-27T07:32:47.207Z,1.60
2018-12-27T07:35:15.791Z,1.60
2018-12-27T07:37:44.393Z,1.60
2018-12-27T07:40:12.980Z,1.60
2018-12-27T07:42:41.591Z,1.60
2018-12-27T07:45:10.170Z,1.60
2018-12-27T07:47:38.764Z,1.70
2018-12-27T07:50:07.431Z,1.60
2018-12-27T07:52:36.018Z,1.70
2018-12-27T07:55:05.354Z,1.70
2018-12-27T07:57:33.943Z,1.80
2018-12-27T08:00:02.531Z,1.80
2018-12-27T08:02:31.111Z,1.80
2018-12-27T08:05:03.966Z,1.80
2018-12-27T08:07:30.088Z,1.90
2018-12-27T08:09:58.692Z,2.00
2018-12-27T08:12:28.199Z,2.10
2018-12-27T08:14:56.791Z,2.10
2018-12-27T08:17:25.375Z,2.10
2018-12-27T08:19:53.974Z,2.00
2018-12-27T08:22:25.816Z,2.00
2018-12-27T08:24:54.414Z,2.10
2018-12-27T08:27:22.994Z,2.10
2018-12-27T08:29:51.594Z,2.10
2018-12-27T08:32:21.175Z,2.10
2018-12-27T08:34:49.852Z,2.10
2018-12-27T08:37:18.432Z,2.10
2018-12-27T08:39:47.500Z,2.10
2018-12-27T08:42:16.083Z,2.10
2018-12-27T08:44:44.691Z,2.10
2018-12-27T08:47:13.288Z,2.20
2018-12-27T08:49:41.875Z,2.30
2018-12-27T08:52:10.472Z,2.30
2018-12-27T08:54:39.059Z,2.30
2018-12-27T08:57:07.664Z,2.30
2018-12-27T08:59:36.247Z,2.40
2018-12-27T09:02:04.847Z,2.40
2018-12-27T09:04:33.431Z,2.40
2018-12-27T09:07:02.027Z,2.50
2018-12-27T09:09:30.608Z,2.50
2018-12-27T09:11:59.203Z,2.60
2018-12-27T09:14:27.792Z,2.60
2018-12-27T09:16:56.394Z,2.60
2018-12-27T09:19:24.972Z,2.70
2018-12-27T09:21:53.568Z,2.70
2018-12-27T09:24:22.159Z,2.80
2018-12-27T09:26:50.822Z,2.80
2018-12-27T09:29:19.407Z,2.90
2018-12-27T09:31:48.011Z,2.80
2018-12-27T09:34:16.609Z,2.90
2018-12-27T09:36:45.183Z,3.00
2018-12-27T09:39:13.779Z,2.90
2018-12-27T09:41:42.366Z,3.00
2018-12-27T09:44:10.958Z,3.00
2018-12-27T09:46:39.546Z,3.10
2018-12-27T09:49:08.155Z,3.10
2018-12-27T09:51:36.751Z,3.20
2018-12-27T09:54:05.352Z,3.20
2018-12-27T09:56:33.957Z,3.20
2018-12-27T09:59:02.562Z,3.30
2018-12-27T10:01:31.145Z,3.40
2018-12-27T10:03:59.748Z,3.50
2018-12-27T10:06:28.333Z,3.60
2018-12-27T10:08:56.927Z,3.70
2018-12-27T10:11:25.512Z,3.70
2018-12-27T10:13:54.115Z,3.80
2018-12-27T10:16:22.703Z,3.90
2018-12-27T10:18:51.307Z,4.00
2018-12-27T10:21:19.887Z,3.90
2018-12-27T10:23:49.472Z,3.90
2018-12-27T10:26:18.055Z,3.80
2018-12-27T10:28:46.659Z,4.20
2018-12-27T10:31:15.261Z,4.40
2018-12-27T10:33:43.848Z,4.50
2018-12-27T10:36:12.438Z,4.70
2018-12-27T10:38:41.024Z,4.10
2018-12-27T10:41:09.618Z,4.10
2018-12-27T10:43:38.211Z,4.30
2018-12-27T10:46:06.814Z,4.30
2018-12-27T10:48:35.399Z,4.30
2018-12-27T10:51:03.999Z,4.20
2018-12-27T10:53:32.585Z,4.30
2018-12-27T10:56:01.187Z,4.30
2018-12-27T10:58:29.776Z,4.50
2018-12-27T11:00:58.375Z,5.00
2018-12-27T11:08:25.281Z,7.40
2018-12-27T11:10:53.869Z,7.50
2018-12-27T11:13:22.455Z,7.20
2018-12-27T11:18:19.370Z,8.30
2018-12-27T11:20:47.960Z,7.30
2018-12-27T11:23:16.539Z,6.90
2018-12-27T11:25:45.142Z,6.80
2018-12-27T11:28:13.723Z,7.20
2018-12-27T11:30:42.319Z,7.20
2018-12-27T11:33:10.903Z,7.00
2018-12-27T11:35:39.531Z,6.60
2018-12-27T11:38:08.157Z,6.10
2018-12-27T11:40:36.781Z,6.00
2018-12-27T11:43:05.378Z,5.80
2018-12-27T11:45:33.963Z,5.50
2018-12-27T11:48:02.563Z,5.90
2018-12-27T11:50:31.148Z,6.70
2018-12-27T11:52:59.751Z,7.50
2018-12-27T11:55:28.335Z,7.90
2018-12-27T11:57:56.926Z,8.30
2018-12-27T12:00:25.514Z,8.90
2018-12-27T12:07:50.772Z,10.00
2018-12-27T12:12:53.783Z,8.30
2018-12-27T12:15:22.371Z,8.20
2018-12-27T12:17:50.967Z,7.90
2018-12-27T12:20:19.557Z,8.40
2018-12-27T12:22:48.165Z,8.70
2018-12-27T12:25:16.742Z,9.10
2018-12-27T12:27:45.339Z,9.40
2018-12-27T12:30:13.923Z,9.10
2018-12-27T12:32:43.471Z,9.50
2018-12-27T12:35:12.140Z,10.70
2018-12-27T12:37:40.975Z,11.00
2018-12-27T12:40:09.571Z,10.80
2018-12-27T12:45:07.490Z,10.60
2018-12-27T12:47:36.085Z,10.70
2018-12-27T12:50:06.626Z,10.40
2018-12-27T12:52:35.212Z,11.00
2018-12-27T12:55:03.883Z,10.40
2018-12-27T13:00:00.799Z,10.10
2018-12-27T13:02:29.382Z,10.40
2018-12-27T13:04:57.989Z,10.90
2018-12-27T13:07:26.580Z,10.10
2018-12-27T13:12:24.479Z,11.50
2018-12-27T13:14:53.079Z,11.20
2018-12-27T13:17:21.675Z,10.80
2018-12-27T13:19:50.283Z,11.20
2018-12-27T13:22:21.884Z,11.20
2018-12-27T13:24:50.486Z,10.90
2018-12-27T13:27:19.074Z,9.60
2018-12-27T13:29:47.667Z,10.20
2018-12-27T13:32:16.258Z,10.00
2018-12-27T13:39:41.548Z,9.40
2018-12-27T13:42:10.131Z,8.80
2018-12-27T13:44:38.720Z,9.10
2018-12-27T13:47:07.318Z,9.20
2018-12-27T13:49:35.904Z,8.50
2018-12-27T13:52:05.403Z,8.70
2018-12-27T13:54:33.990Z,9.10
2018-12-27T13:59:30.911Z,8.80
2018-12-27T14:01:59.506Z,8.70
2018-12-27T14:04:28.086Z,8.40
2018-12-27T14:06:56.686Z,7.80
2018-12-27T14:09:25.291Z,7.80
2018-12-27T14:11:53.891Z,7.50
2018-12-27T14:14:22.475Z,7.60
2018-12-27T14:16:51.070Z,6.70
2018-12-27T14:19:19.656Z,6.40
2018-12-27T14:21:48.243Z,6.50
2018-12-27T14:24:16.831Z,6.70
2018-12-27T14:26:45.434Z,6.50
2018-12-27T14:29:14.019Z,6.50
2018-12-27T14:31:42.627Z,6.40
2018-12-27T14:34:11.212Z,5.80
2018-12-27T14:36:39.984Z,5.70
2018-12-27T14:39:08.873Z,5.40
2018-12-27T14:41:37.446Z,5.50
2018-12-27T14:44:06.047Z,5.40
2018-12-27T14:46:34.631Z,5.20
2018-12-27T14:49:03.255Z,5.20
2018-12-27T14:51:31.847Z,5.10
2018-12-27T14:54:00.445Z,5.10
2018-12-27T14:56:29.035Z,4.90
2018-12-27T14:58:57.684Z,4.80
2018-12-27T15:01:26.279Z,4.80
2018-12-27T15:03:54.871Z,4.70
2018-12-27T15:06:23.463Z,4.60
2018-12-27T15:08:52.071Z,4.50
2018-12-27T15:11:20.655Z,4.40
2018-12-27T15:13:49.260Z,4.40
2018-12-27T15:18:46.178Z,4.10
2018-12-27T15:21:14.763Z,4.10
2018-12-27T15:23:43.349Z,4.00
2018-12-27T15:26:11.938Z,3.90
2018-12-27T15:28:40.519Z,3.70
2018-12-27T15:31:09.111Z,3.50
2018-12-27T15:33:37.694Z,3.50
2018-12-27T15:36:06.289Z,3.40
2018-12-27T15:38:34.876Z,3.40
2018-12-27T15:41:03.471Z,3.30
2018-12-27T15:43:32.055Z,3.30
2018-12-27T15:46:00.656Z,3.20
2018-12-27T15:48:29.239Z,3.10
2018-12-27T15:50:57.925Z,3.10
2018-12-27T15:53:26.507Z,2.90
2018-12-27T15:55:55.110Z,2.80
2018-12-27T15:58:23.729Z,2.80
2018-12-27T16:00:52.372Z,2.80
2018-12-27T16:03:20.963Z,2.70
2018-12-27T16:05:49.555Z,2.40
2018-12-27T16:08:18.138Z,2.30
2018-12-27T16:10:46.740Z,2.00
2018-12-27T16:13:15.331Z,2.00
2018-12-27T16:15:43.916Z,1.90
2018-12-27T16:18:12.515Z,1.90
2018-12-27T16:20:41.096Z,2.00
2018-12-27T16:23:09.694Z,2.10
2018-12-27T16:25:38.274Z,2.10
2018-12-27T16:28:06.871Z,2.10
2018-12-27T16:30:35.455Z,2.00
2018-12-27T16:33:04.054Z,2.00
2018-12-27T16:35:32.638Z,2.00
2018-12-27T16:38:01.242Z,2.00
2018-12-27T16:40:29.829Z,2.10
2018-12-27T16:42:58.421Z,2.10
2018-12-27T16:45:27.007Z,2.10
2018-12-27T16:47:55.612Z,1.90
2018-12-27T16:50:24.195Z,2.00
2018-12-27T16:52:52.790Z,2.10
2018-12-27T16:55:22.158Z,2.00
2018-12-27T16:57:50.755Z,1.90
2018-12-27T17:00:19.403Z,1.90
2018-12-27T17:02:48.048Z,2.00
2018-12-27T17:05:16.643Z,2.00
2018-12-27T17:07:45.235Z,2.00
2018-12-27T17:10:13.831Z,1.90
2018-12-27T17:12:42.416Z,1.80
2018-12-27T17:15:12.048Z,1.70
2018-12-27T17:17:40.795Z,1.80
2018-12-27T17:20:09.391Z,1.70
2018-12-27T17:22:37.971Z,1.70
2018-12-27T17:25:06.566Z,1.70
2018-12-27T17:27:35.148Z,1.70
2018-12-27T17:30:04.415Z,1.70
2018-12-27T17:32:33.012Z,1.70
2018-12-27T17:35:01.612Z,1.70
2018-12-27T17:37:30.192Z,1.70
2018-12-27T17:39:58.787Z,1.60
2018-12-27T17:42:28.329Z,1.70
2018-12-27T17:44:56.931Z,1.70
2018-12-27T17:47:25.519Z,1.70
2018-12-27T17:49:54.119Z,1.70
2018-12-27T17:52:22.700Z,1.60
2018-12-27T17:54:51.303Z,1.70
2018-12-27T17:57:19.887Z,1.70
2018-12-27T17:59:48.482Z,1.70
2018-12-27T18:02:17.066Z,1.60
2018-12-27T18:04:45.668Z,1.40
2018-12-27T18:07:14.251Z,1.50
2018-12-27T18:09:42.836Z,1.50
2018-12-27T18:12:11.431Z,1.40
2018-12-27T18:14:40.015Z,1.30
2018-12-27T18:17:08.611Z,1.40
2018-12-27T18:19:37.202Z,1.40
2018-12-27T18:22:05.799Z,1.40
2018-12-27T18:24:34.379Z,1.40
2018-12-27T18:27:03.056Z,1.40
2018-12-27T18:29:31.647Z,1.40
2018-12-27T18:32:00.243Z,1.30
2018-12-27T18:34:28.826Z,1.10
2018-12-27T18:36:57.429Z,1.10
2018-12-27T18:39:26.018Z,1.10
2018-12-27T18:41:54.645Z,1.10
2018-12-27T18:44:23.227Z,1.10
2018-12-27T18:46:51.831Z,1.10
2018-12-27T18:49:20.757Z,1.00
2018-12-27T18:51:49.486Z,1.00
2018-12-27T18:54:18.067Z,1.00
2018-12-27T18:56:46.663Z,1.00
2018-12-27T18:59:15.255Z,1.00
2018-12-27T19:01:43.851Z,1.10
2018-12-27T19:04:12.443Z,1.10
2018-12-27T19:06:41.044Z,1.20
2018-12-27T19:09:09.629Z,1.20
2018-12-27T19:12:14.820Z,1.20
2018-12-27T19:14:43.571Z,1.10
